Victoria, Argentina
Current Conditions -  °F | °C
As of 7:00 PM on Sunday 21 Dec 2014 (Local Time) from SAAR Reporting Station
Broken Clouds Broken Clouds  
Wind Chill: 22°   Ceiling: 20000
Heat Index: 22°   Visibility: 6mi
Dew Point:   Wind: 14mph
Humidity: 29%   Direction: 200°SSW
Pressure: 29.83"   Gusts: NA
Location:  32.62°S, 60.17°W
Report Text: SAAR 212200Z 20012KT 9999 FEW028 SCT100BKN200 22/03 Q1010
Loading
Personal Weather Stations






























Interactive Weather Map New forecast layout! Learn more

10-Day Weather Forecast

Advertisements
Track Severe Weather on mobile